createdAt,value
2022-08-17T00:00:34.298Z,95033.38
2022-08-17T00:03:10.358Z,95026.84
2022-08-17T00:05:42.714Z,95023.00
2022-08-17T00:08:10.777Z,95022.28
2022-08-17T00:10:40.501Z,95027.63
2022-08-17T00:13:11.043Z,95025.00
2022-08-17T00:15:38.950Z,95022.66
2022-08-17T00:19:01.748Z,95026.16
2022-08-17T00:20:55.809Z,95027.19
2022-08-17T00:23:24.247Z,95023.50
2022-08-17T00:25:54.209Z,95019.13
2022-08-17T00:28:22.412Z,95023.81
2022-08-17T00:30:53.558Z,95020.53
2022-08-17T00:33:25.934Z,95008.72
2022-08-17T00:35:55.140Z,95010.59
2022-08-17T00:38:24.739Z,95009.22
2022-08-17T00:40:59.030Z,95007.63
2022-08-17T00:43:32.151Z,95002.78
2022-08-17T00:46:02.780Z,95008.09
2022-08-17T00:48:31.692Z,95000.00
2022-08-17T00:51:07.636Z,95004.03
2022-08-17T00:53:40.055Z,95000.81
2022-08-17T00:56:13.093Z,95004.84
2022-08-17T00:58:42.213Z,94999.75
2022-08-17T01:01:12.357Z,95007.94
2022-08-17T01:03:49.626Z,94991.28
2022-08-17T01:06:17.474Z,94994.91
2022-08-17T01:08:46.121Z,94987.16
2022-08-17T01:11:15.386Z,94986.91
2022-08-17T01:13:45.710Z,94989.09
2022-08-17T01:16:17.596Z,94982.25
2022-08-17T01:18:48.772Z,94984.41
2022-08-17T01:21:22.134Z,94991.09
2022-08-17T01:23:51.381Z,94982.88
2022-08-17T01:26:19.576Z,94991.69
2022-08-17T01:28:54.204Z,94989.19
2022-08-17T01:31:24.879Z,94992.25
2022-08-17T01:33:52.914Z,94990.59
2022-08-17T01:36:20.622Z,94985.75
2022-08-17T01:38:48.799Z,94989.47
2022-08-17T01:41:18.028Z,94985.09
2022-08-17T01:43:50.049Z,94977.00
2022-08-17T01:46:23.439Z,94978.63
2022-08-17T01:48:51.875Z,94982.66
2022-08-17T01:51:20.078Z,94981.38
2022-08-17T01:53:51.379Z,94979.28
2022-08-17T01:56:23.892Z,94976.94
2022-08-17T01:58:52.639Z,94980.09
2022-08-17T02:01:22.769Z,94969.19
2022-08-17T02:03:56.156Z,94961.75
2022-08-17T02:06:29.928Z,94966.03
2022-08-17T02:09:02.978Z,94961.88
2022-08-17T02:11:35.084Z,94974.22
2022-08-17T02:14:04.120Z,94953.78
2022-08-17T02:16:36.984Z,94959.44
2022-08-17T02:19:07.512Z,94966.06
2022-08-17T02:21:35.255Z,94962.59
2022-08-17T02:24:04.695Z,94961.69
2022-08-17T02:26:33.774Z,94950.16
2022-08-17T02:29:01.984Z,94951.66
2022-08-17T02:31:30.047Z,94945.22
2022-08-17T02:34:03.473Z,94945.66
2022-08-17T02:36:33.011Z,94937.91
2022-08-17T02:39:01.703Z,94945.03
2022-08-17T02:41:29.470Z,94947.28
2022-08-17T02:43:59.301Z,94945.78
2022-08-17T02:46:28.209Z,94941.31
2022-08-17T02:48:56.253Z,94951.31
2022-08-17T02:51:23.938Z,94943.31
2022-08-17T02:53:52.218Z,94950.06
2022-08-17T02:56:20.731Z,94944.06
2022-08-17T02:58:48.455Z,94937.94
2022-08-17T03:01:18.340Z,94935.03
2022-08-17T03:03:46.197Z,94922.28
2022-08-17T03:06:14.179Z,94927.59
2022-08-17T03:08:41.824Z,94930.06
2022-08-17T03:11:10.776Z,94938.59
2022-08-17T03:13:38.434Z,94930.50
2022-08-17T03:16:07.286Z,94936.44
2022-08-17T03:18:36.740Z,94947.78
2022-08-17T03:21:08.778Z,94946.72
2022-08-17T03:23:40.971Z,94955.13
2022-08-17T03:26:12.304Z,94957.47
2022-08-17T03:28:43.429Z,94964.31
2022-08-17T03:31:11.878Z,94963.16
2022-08-17T03:33:41.231Z,94958.75
2022-08-17T03:36:10.111Z,94956.69
2022-08-17T03:38:39.291Z,94962.69
2022-08-17T03:41:08.210Z,94965.59
2022-08-17T03:43:35.864Z,94969.41
2022-08-17T03:46:27.823Z,94971.25
2022-08-17T03:49:22.697Z,94965.47
2022-08-17T03:52:08.753Z,94964.19
2022-08-17T03:54:54.320Z,94967.53
2022-08-17T03:57:22.811Z,94961.03
2022-08-17T03:59:51.169Z,94967.06
2022-08-17T04:02:22.436Z,94957.53
2022-08-17T04:04:52.714Z,94964.84
2022-08-17T04:07:21.573Z,94959.28
2022-08-17T04:09:50.254Z,94951.84
2022-08-17T04:12:20.514Z,94955.88
2022-08-17T04:14:53.245Z,94959.72
2022-08-17T04:17:24.141Z,94957.47
2022-08-17T04:19:54.046Z,94955.94
2022-08-17T04:22:31.024Z,94960.22
2022-08-17T04:25:04.673Z,94966.03
2022-08-17T04:27:32.352Z,94967.16
2022-08-17T04:30:00.380Z,94972.66
2022-08-17T04:33:09.852Z,94972.38
2022-08-17T04:35:21.407Z,94977.94
2022-08-17T04:37:49.118Z,94971.03
2022-08-17T04:40:35.285Z,94982.47
2022-08-17T04:43:05.077Z,94990.81
2022-08-17T04:45:33.533Z,94987.13
2022-08-17T04:48:01.358Z,94987.91
2022-08-17T04:50:30.454Z,94993.25
2022-08-17T04:52:58.448Z,94988.03
2022-08-17T04:55:26.960Z,94991.38
2022-08-17T04:57:54.783Z,94990.94
2022-08-17T05:00:25.629Z,94997.41
2022-08-17T05:02:55.614Z,94995.44
2022-08-17T05:05:26.196Z,95005.25
2022-08-17T05:07:59.211Z,95001.06
2022-08-17T05:10:29.627Z,95004.97
2022-08-17T05:13:01.720Z,94998.25
2022-08-17T05:15:33.187Z,95002.56
2022-08-17T05:18:04.330Z,94999.28
2022-08-17T05:20:32.576Z,94997.16
2022-08-17T05:23:04.863Z,95002.31
2022-08-17T05:25:36.289Z,95001.06
2022-08-17T05:28:05.858Z,95009.84
2022-08-17T05:30:35.721Z,95007.91
2022-08-17T05:33:06.678Z,95008.91
2022-08-17T05:35:37.399Z,95009.56
2022-08-17T05:38:07.995Z,95014.31
2022-08-17T05:40:36.886Z,95014.25
2022-08-17T05:43:07.896Z,95017.63
2022-08-17T05:45:55.430Z,95017.00
2022-08-17T05:48:39.650Z,95017.88
2022-08-17T05:51:40.113Z,95022.94
2022-08-17T05:54:29.961Z,95021.88
2022-08-17T05:57:20.966Z,95023.53
2022-08-17T05:59:59.122Z,95026.44
2022-08-17T06:02:47.511Z,95024.03
2022-08-17T06:05:32.451Z,95026.97
2022-08-17T06:08:10.244Z,95024.03
2022-08-17T06:10:46.463Z,95033.78
2022-08-17T06:13:24.290Z,95039.06
2022-08-17T06:15:59.948Z,95031.94
2022-08-17T06:18:32.558Z,95031.50
2022-08-17T06:21:04.370Z,95027.31
2022-08-17T06:23:36.190Z,95037.03
2022-08-17T06:26:13.268Z,95047.81
2022-08-17T06:28:48.742Z,95049.22
2022-08-17T06:31:27.414Z,95049.00
2022-08-17T06:33:56.823Z,95059.75
2022-08-17T06:36:41.236Z,95055.97
2022-08-17T06:39:22.761Z,95056.00
2022-08-17T06:42:01.404Z,95056.50
2022-08-17T06:44:42.335Z,95073.44
2022-08-17T06:47:28.026Z,95066.41
2022-08-17T06:50:18.236Z,95061.00
2022-08-17T06:52:54.049Z,95069.56
2022-08-17T06:55:33.184Z,95073.53
2022-08-17T06:58:16.272Z,95078.31
2022-08-17T07:00:47.491Z,95081.66
2022-08-17T07:03:25.018Z,95083.28
2022-08-17T07:05:55.721Z,95085.44
2022-08-17T07:08:35.124Z,95083.41
2022-08-17T07:11:14.465Z,95081.75
2022-08-17T07:13:51.788Z,95087.28
2022-08-17T07:16:31.699Z,95079.44
2022-08-17T07:19:00.129Z,95083.22
2022-08-17T07:21:40.770Z,95084.16
2022-08-17T07:24:26.323Z,95080.34
2022-08-17T07:27:10.861Z,95093.16
2022-08-17T07:29:44.716Z,95097.44
2022-08-17T07:32:18.321Z,95090.13
2022-08-17T07:35:12.344Z,95076.63
2022-08-17T07:37:46.080Z,95081.34
2022-08-17T07:40:22.094Z,95078.91
2022-08-17T07:43:21.810Z,95078.41
2022-08-17T07:46:37.154Z,95081.34
2022-08-17T07:49:24.543Z,95074.53
2022-08-17T07:52:47.492Z,95064.09
2022-08-17T07:54:49.702Z,95057.19
2022-08-17T07:57:41.223Z,95075.66
2022-08-17T08:00:23.913Z,95084.88
2022-08-17T08:03:16.605Z,95077.28
2022-08-17T08:05:57.358Z,95088.94
2022-08-17T08:08:32.336Z,95084.97
2022-08-17T08:11:05.264Z,95085.06
2022-08-17T08:13:34.719Z,95078.97
2022-08-17T08:16:25.463Z,95079.59
2022-08-17T08:18:58.024Z,95085.53
2022-08-17T08:21:41.683Z,95073.44
2022-08-17T08:24:30.764Z,95069.44
2022-08-17T08:27:09.152Z,95067.63
2022-08-17T08:29:48.876Z,95075.09
2022-08-17T08:32:22.535Z,95079.63
2022-08-17T08:35:03.725Z,95083.47
2022-08-17T08:37:43.805Z,95077.81
2022-08-17T08:40:31.638Z,95086.13
2022-08-17T08:43:08.696Z,95079.06
2022-08-17T08:45:43.686Z,95087.84
2022-08-17T08:48:56.563Z,95084.84
2022-08-17T08:51:27.785Z,95081.47
2022-08-17T08:54:03.774Z,95084.72
2022-08-17T08:56:38.119Z,95086.63
2022-08-17T08:59:21.466Z,95089.72
2022-08-17T09:02:01.288Z,95090.00
2022-08-17T09:05:13.467Z,95093.22
2022-08-17T09:07:56.318Z,95090.66
2022-08-17T09:10:30.669Z,95083.22
2022-08-17T09:13:10.147Z,95072.69
2022-08-17T09:15:43.404Z,95070.13
2022-08-17T09:19:02.720Z,95069.78
2022-08-17T09:21:11.668Z,95063.72
2022-08-17T09:23:46.612Z,95063.59
2022-08-17T09:26:22.752Z,95052.03
2022-08-17T09:28:52.750Z,95057.13
2022-08-17T09:31:26.798Z,95051.66
2022-08-17T09:34:01.182Z,95057.41
2022-08-17T09:36:33.822Z,95051.34
2022-08-17T09:39:07.176Z,95055.28
2022-08-17T09:41:39.916Z,95055.53
2022-08-17T09:44:24.767Z,95062.50
2022-08-17T09:46:56.267Z,95078.50
2022-08-17T09:49:31.390Z,95090.66
2022-08-17T09:52:04.656Z,95096.91
2022-08-17T09:54:39.962Z,95092.16
2022-08-17T09:57:31.501Z,95098.28
2022-08-17T10:00:16.049Z,95095.78
2022-08-17T10:03:16.186Z,95100.41
2022-08-17T10:05:51.298Z,95095.97
2022-08-17T10:08:33.829Z,95091.75
2022-08-17T10:11:15.402Z,95085.44
2022-08-17T10:13:52.904Z,95090.16
2022-08-17T10:16:27.058Z,95088.56
2022-08-17T10:19:03.738Z,95077.81
2022-08-17T10:22:00.976Z,95083.16
2022-08-17T10:25:22.149Z,95086.97
2022-08-17T10:27:57.866Z,95076.50
2022-08-17T10:30:32.810Z,95079.66
2022-08-17T10:33:03.792Z,95082.44
2022-08-17T10:35:40.632Z,95080.72
2022-08-17T10:38:34.431Z,95088.03
2022-08-17T10:41:13.066Z,95076.94
2022-08-17T10:44:37.585Z,95078.31
2022-08-17T10:46:54.531Z,95074.13
2022-08-17T10:49:29.246Z,95070.47
2022-08-17T10:52:00.416Z,95074.25
2022-08-17T10:54:37.592Z,95072.06
2022-08-17T10:57:40.347Z,95084.19
2022-08-17T11:00:15.100Z,95085.91
2022-08-17T11:02:52.149Z,95080.00
2022-08-17T11:05:43.962Z,95076.63
2022-08-17T11:08:45.070Z,95075.25
2022-08-17T11:11:35.799Z,95073.72
2022-08-17T11:14:23.689Z,95072.19
2022-08-17T11:17:11.575Z,95076.63
2022-08-17T11:20:15.166Z,95076.75
2022-08-17T11:23:19.015Z,95083.94
2022-08-17T11:25:52.111Z,95086.91
2022-08-17T11:28:23.532Z,95077.84
2022-08-17T11:30:55.343Z,95076.72
2022-08-17T11:33:53.656Z,95087.25
2022-08-17T11:36:37.506Z,95088.97
2022-08-17T11:39:19.660Z,95093.88
2022-08-17T11:41:55.121Z,95099.69
2022-08-17T11:44:37.592Z,95112.88
2022-08-17T11:47:33.858Z,95112.53
2022-08-17T11:50:36.581Z,95103.53
2022-08-17T11:53:04.474Z,95104.34
2022-08-17T11:56:04.507Z,95108.53
2022-08-17T11:58:41.298Z,95108.06
2022-08-17T12:01:13.601Z,95110.59
2022-08-17T12:03:55.595Z,95108.91
2022-08-17T12:06:46.963Z,95109.97
2022-08-17T12:09:19.982Z,95101.63
2022-08-17T12:11:55.508Z,95095.09
2022-08-17T12:15:08.906Z,95099.88
2022-08-17T12:17:39.203Z,95095.56
2022-08-17T12:20:14.729Z,95093.63
2022-08-17T12:22:55.090Z,95082.75
2022-08-17T12:25:30.324Z,95079.81
2022-08-17T12:28:05.308Z,95094.34
2022-08-17T12:30:36.598Z,95092.97
2022-08-17T12:33:11.300Z,95096.75
2022-08-17T12:35:39.794Z,95100.19
2022-08-17T12:38:26.932Z,95090.69
2022-08-17T12:40:59.794Z,95082.91
2022-08-17T12:43:32.802Z,95079.59
2022-08-17T12:46:10.697Z,95089.81
2022-08-17T12:48:59.388Z,95075.09
2022-08-17T12:51:29.463Z,95073.16
2022-08-17T12:53:58.452Z,95074.41
2022-08-17T12:56:26.690Z,95074.41
2022-08-17T12:58:56.584Z,95075.50
2022-08-17T13:01:25.180Z,95063.00
2022-08-17T13:03:59.642Z,95069.50
2022-08-17T13:06:31.600Z,95065.38
2022-08-17T13:09:10.311Z,95063.50
2022-08-17T13:11:48.777Z,95072.72
2022-08-17T13:14:18.425Z,95069.38
2022-08-17T13:16:52.705Z,95072.03
2022-08-17T13:19:40.096Z,95071.59
2022-08-17T13:22:12.983Z,95057.25
2022-08-17T13:24:54.340Z,95056.28
2022-08-17T13:27:25.318Z,95059.88
2022-08-17T13:29:55.778Z,95043.44
2022-08-17T13:32:36.347Z,95053.56
2022-08-17T13:35:32.418Z,95039.00
2022-08-17T13:38:10.078Z,95035.53
2022-08-17T13:40:43.842Z,95031.75
2022-08-17T13:43:12.107Z,95035.00
2022-08-17T13:45:52.587Z,95037.97
2022-08-17T13:48:24.933Z,95031.22
2022-08-17T13:51:16.532Z,95037.56
2022-08-17T13:53:55.451Z,95026.09
2022-08-17T13:56:37.008Z,95026.41
2022-08-17T13:59:12.254Z,95028.09
2022-08-17T14:01:42.331Z,95027.09
2022-08-17T14:04:12.616Z,95019.59
2022-08-17T14:06:52.905Z,95020.50
2022-08-17T14:09:25.176Z,95008.72
2022-08-17T14:11:56.242Z,95012.88
2022-08-17T14:14:24.088Z,95001.41
2022-08-17T14:16:53.068Z,95005.13
2022-08-17T14:19:22.121Z,94997.53
2022-08-17T14:21:50.950Z,94991.28
2022-08-17T14:24:23.638Z,94978.75
2022-08-17T14:26:53.465Z,94978.28
2022-08-17T14:29:24.152Z,94978.06
2022-08-17T14:31:54.240Z,94973.94
2022-08-17T14:34:23.074Z,94980.31
2022-08-17T14:36:52.010Z,94963.16
2022-08-17T14:39:20.194Z,94966.00
2022-08-17T14:41:48.227Z,94962.06
2022-08-17T14:44:16.261Z,94968.13
2022-08-17T14:46:46.568Z,94964.91
2022-08-17T14:49:15.634Z,94965.47
2022-08-17T14:51:44.689Z,94977.59
2022-08-17T14:54:25.590Z,94991.41
2022-08-17T14:57:23.018Z,94977.56
2022-08-17T14:59:53.199Z,94982.84
2022-08-17T15:02:27.973Z,94979.69
2022-08-17T15:05:00.606Z,94981.72
2022-08-17T15:07:30.563Z,94982.53
2022-08-17T15:10:00.407Z,94979.00
2022-08-17T15:12:33.173Z,94984.00
2022-08-17T15:15:04.517Z,94990.03
2022-08-17T15:17:45.021Z,94977.66
2022-08-17T15:20:15.757Z,94987.19
2022-08-17T15:22:45.095Z,94984.94
2022-08-17T15:25:14.944Z,94983.91
2022-08-17T15:27:43.119Z,94979.13
2022-08-17T15:30:12.187Z,94975.59
2022-08-17T15:32:50.864Z,94977.16
2022-08-17T15:35:26.870Z,94980.03
2022-08-17T15:37:57.642Z,94981.53
2022-08-17T15:40:26.438Z,94981.75
2022-08-17T15:42:54.119Z,94984.94
2022-08-17T15:45:27.426Z,94979.91
2022-08-17T15:47:56.463Z,94986.50
2022-08-17T15:50:24.595Z,94976.25
2022-08-17T15:52:57.932Z,94975.91
2022-08-17T15:55:27.431Z,94974.19
2022-08-17T15:57:55.296Z,94990.81
2022-08-17T16:00:24.275Z,94987.06
2022-08-17T16:03:16.042Z,94988.06
2022-08-17T16:05:41.601Z,94987.06
2022-08-17T16:08:11.005Z,94980.34
2022-08-17T16:10:39.480Z,94978.31
2022-08-17T16:13:17.506Z,94983.19
2022-08-17T16:15:53.102Z,94979.19
2022-08-17T16:18:30.793Z,94981.56
2022-08-17T16:21:22.762Z,94983.69
2022-08-17T16:23:52.268Z,94978.75
2022-08-17T16:26:20.767Z,94971.97
2022-08-17T16:28:48.424Z,94965.81
2022-08-17T16:31:17.075Z,94960.50
2022-08-17T16:34:15.816Z,94954.44
2022-08-17T16:36:34.428Z,94945.00
2022-08-17T16:39:02.316Z,94948.41
2022-08-17T16:41:45.857Z,94945.06
2022-08-17T16:44:15.618Z,94938.66
2022-08-17T16:46:45.744Z,94923.28
2022-08-17T16:49:36.057Z,94936.19
2022-08-17T16:52:05.226Z,94936.56
2022-08-17T16:54:33.455Z,94927.53
2022-08-17T16:57:03.918Z,94929.50
2022-08-17T16:59:41.853Z,94929.81
2022-08-17T17:02:15.225Z,94928.97
2022-08-17T17:04:50.215Z,94930.47
2022-08-17T17:07:42.372Z,94919.81
2022-08-17T17:10:13.526Z,94922.25
2022-08-17T17:13:02.090Z,94916.97
2022-08-17T17:15:41.409Z,94917.47
2022-08-17T17:18:13.964Z,94910.78
2022-08-17T17:20:48.594Z,94917.69
2022-08-17T17:23:34.906Z,94919.63
2022-08-17T17:26:12.894Z,94919.78
2022-08-17T17:28:56.859Z,94910.66
2022-08-17T17:31:28.335Z,94908.09
2022-08-17T17:33:58.198Z,94913.34
2022-08-17T17:36:30.157Z,94913.03
2022-08-17T17:39:05.285Z,94904.84
2022-08-17T17:41:38.060Z,94913.28
2022-08-17T17:44:09.307Z,94913.09
2022-08-17T17:46:43.331Z,94917.56
2022-08-17T17:49:14.030Z,94916.41
2022-08-17T17:52:06.548Z,94917.16
2022-08-17T17:54:53.957Z,94916.78
2022-08-17T17:57:32.317Z,94912.63
2022-08-17T18:00:08.304Z,94915.00
2022-08-17T18:02:55.657Z,94920.88
2022-08-17T18:05:35.886Z,94915.41
2022-08-17T18:08:14.372Z,94915.03
2022-08-17T18:10:50.868Z,94905.25
2022-08-17T18:13:28.249Z,94903.13
2022-08-17T18:16:00.668Z,94904.94
2022-08-17T18:18:38.720Z,94906.81
2022-08-17T18:21:19.257Z,94911.84
2022-08-17T18:23:51.198Z,94908.28
2022-08-17T18:26:37.515Z,94910.31
2022-08-17T18:29:21.412Z,94909.16
2022-08-17T18:31:52.451Z,94910.69
2022-08-17T18:34:45.833Z,94907.28
2022-08-17T18:37:16.020Z,94909.59
2022-08-17T18:39:47.102Z,94906.50
2022-08-17T18:42:27.568Z,94901.19
2022-08-17T18:44:56.676Z,94907.53
2022-08-17T18:47:27.155Z,94897.09
2022-08-17T18:49:58.681Z,94904.25
2022-08-17T18:52:29.023Z,94897.81
2022-08-17T18:55:03.934Z,94901.72
2022-08-17T18:57:35.234Z,94902.47
2022-08-17T19:00:12.509Z,94902.16
2022-08-17T19:02:52.601Z,94900.97
2022-08-17T19:05:31.668Z,94906.47
2022-08-17T19:08:20.125Z,94901.84
2022-08-17T19:10:49.793Z,94891.31
2022-08-17T19:13:24.457Z,94898.44
2022-08-17T19:16:11.908Z,94892.63
2022-08-17T19:18:47.751Z,94884.03
2022-08-17T19:21:19.384Z,94882.19
2022-08-17T19:23:54.187Z,94876.00
2022-08-17T19:26:54.285Z,94871.78
2022-08-17T19:29:19.622Z,94880.00
2022-08-17T19:31:50.696Z,94891.22
2022-08-17T19:34:30.323Z,94894.94
2022-08-17T19:37:08.905Z,94898.50
2022-08-17T19:39:44.465Z,94900.06
2022-08-17T19:42:33.291Z,94915.97
2022-08-17T19:45:09.396Z,94921.56
2022-08-17T19:47:55.356Z,94915.06
2022-08-17T19:50:41.576Z,94916.97
2022-08-17T19:53:19.837Z,94911.38
2022-08-17T19:55:54.796Z,94912.16
2022-08-17T19:58:34.602Z,94912.47
2022-08-17T20:01:08.051Z,94915.47
2022-08-17T20:03:43.752Z,94916.28
2022-08-17T20:06:13.994Z,94924.16
2022-08-17T20:08:54.840Z,94922.34
2022-08-17T20:11:28.916Z,94922.72
2022-08-17T20:14:02.147Z,94916.53
2022-08-17T20:16:33.226Z,94914.72
2022-08-17T20:19:04.499Z,94913.91
2022-08-17T20:21:37.830Z,94919.09
2022-08-17T20:24:20.141Z,94936.47
2022-08-17T20:26:58.090Z,94945.91
2022-08-17T20:29:39.937Z,94944.84
2022-08-17T20:32:32.320Z,94961.81
2022-08-17T20:35:09.376Z,94966.31
2022-08-17T20:37:43.123Z,94967.63
2022-08-17T20:40:33.507Z,94972.97
2022-08-17T20:43:39.868Z,94981.91
2022-08-17T20:46:28.053Z,94988.78
2022-08-17T20:49:01.394Z,94988.56
2022-08-17T20:51:33.504Z,94986.16
2022-08-17T20:54:07.932Z,94973.28
2022-08-17T20:56:56.105Z,94973.03
2022-08-17T20:59:56.408Z,94966.03
2022-08-17T21:02:28.932Z,94970.06
2022-08-17T21:05:08.250Z,94975.91
2022-08-17T21:07:54.502Z,94999.81
2022-08-17T21:10:38.333Z,95009.78
2022-08-17T21:13:32.510Z,95029.69
2022-08-17T21:16:08.199Z,95050.84
2022-08-17T21:18:45.428Z,95047.84
2022-08-17T21:21:24.912Z,95045.50
2022-08-17T21:24:11.935Z,95044.44
2022-08-17T21:26:55.334Z,95038.63
2022-08-17T21:29:31.020Z,95039.03
2022-08-17T21:32:28.124Z,95045.13
2022-08-17T21:35:39.079Z,95042.13
2022-08-17T21:38:15.923Z,95068.28
2022-08-17T21:40:49.975Z,95122.38
2022-08-17T21:43:24.414Z,95174.69
2022-08-17T21:45:59.459Z,95177.34
2022-08-17T21:48:28.531Z,95197.69
2022-08-17T21:51:04.295Z,95188.22
2022-08-17T21:53:39.042Z,95179.69
2022-08-17T21:56:08.995Z,95181.81
2022-08-17T21:58:40.908Z,95188.97
2022-08-17T22:01:27.588Z,95218.44
2022-08-17T22:03:58.994Z,95223.81
2022-08-17T22:06:29.763Z,95217.44
2022-08-17T22:09:12.284Z,95192.31
2022-08-17T22:11:52.858Z,95179.38
2022-08-17T22:14:22.371Z,95174.25
2022-08-17T22:17:07.837Z,95174.97
2022-08-17T22:19:36.838Z,95195.50
2022-08-17T22:22:06.483Z,95197.03
2022-08-17T22:24:37.131Z,95180.22
2022-08-17T22:27:08.229Z,95168.25
2022-08-17T22:29:57.837Z,95177.22
2022-08-17T22:32:48.226Z,95198.72
2022-08-17T22:35:34.037Z,95224.69
2022-08-17T22:38:28.717Z,95223.75
2022-08-17T22:41:16.358Z,95240.94
2022-08-17T22:43:44.910Z,95231.88
2022-08-17T22:46:15.268Z,95236.00
2022-08-17T22:48:50.127Z,95237.13
2022-08-17T22:51:24.863Z,95230.84
2022-08-17T22:54:13.145Z,95220.25
2022-08-17T22:57:18.811Z,95215.59
2022-08-17T22:59:49.434Z,95210.97
2022-08-17T23:02:24.404Z,95215.69
2022-08-17T23:04:57.707Z,95223.25
2022-08-17T23:07:25.500Z,95228.03
2022-08-17T23:09:54.801Z,95232.00
2022-08-17T23:12:27.504Z,95242.72
2022-08-17T23:15:02.011Z,95238.31
2022-08-17T23:17:37.219Z,95233.34
2022-08-17T23:20:08.203Z,95230.88
2022-08-17T23:22:37.976Z,95220.53
2022-08-17T23:25:27.351Z,95215.59
2022-08-17T23:27:57.288Z,95206.41
2022-08-17T23:30:28.708Z,95205.13
2022-08-17T23:32:56.812Z,95214.84
2022-08-17T23:35:39.824Z,95212.50
2022-08-17T23:38:12.400Z,95214.31
2022-08-17T23:40:41.422Z,95217.28
2022-08-17T23:43:23.720Z,95216.09
2022-08-17T23:45:54.320Z,95228.66
2022-08-17T23:48:35.479Z,95218.34
2022-08-17T23:51:09.616Z,95220.31
2022-08-17T23:53:40.367Z,95219.97
2022-08-17T23:56:11.489Z,95222.19
2022-08-17T23:58:42.936Z,95211.03
